sensor_id;sensor_type;location;lat;lon;timestamp;pressure;altitude;pressure_sealevel;temperature;humidity
79127;BME280;68528;48.814;8.904;2023-05-19T00:01:11;96895.00;;;9.31;62.35
79127;BME280;68528;48.814;8.904;2023-05-19T00:03:48;96888.72;;;9.30;62.47
79127;BME280;68528;48.814;8.904;2023-05-19T00:06:53;96886.00;;;9.30;62.50
79127;BME280;68528;48.814;8.904;2023-05-19T00:10:30;96893.06;;;9.19;62.95
79127;BME280;68528;48.814;8.904;2023-05-19T00:12:57;96886.69;;;9.15;62.75
79127;BME280;68528;48.814;8.904;2023-05-19T00:15:23;96883.50;;;9.13;63.14
79127;BME280;68528;48.814;8.904;2023-05-19T00:17:48;96881.44;;;9.10;63.38
79127;BME280;68528;48.814;8.904;2023-05-19T00:20:18;96880.22;;;9.08;63.34
79127;BME280;68528;48.814;8.904;2023-05-19T00:22:44;96879.19;;;9.00;63.87
79127;BME280;68528;48.814;8.904;2023-05-19T00:31:37;96877.13;;;8.85;65.39
79127;BME280;68528;48.814;8.904;2023-05-19T00:34:02;96878.19;;;8.81;65.39
79127;BME280;68528;48.814;8.904;2023-05-19T00:36:28;96877.94;;;8.86;65.23
79127;BME280;68528;48.814;8.904;2023-05-19T00:38:53;96870.75;;;8.81;65.26
79127;BME280;68528;48.814;8.904;2023-05-19T00:41:19;96877.38;;;8.80;65.44
79127;BME280;68528;48.814;8.904;2023-05-19T00:47:31;96881.91;;;8.64;66.35
79127;BME280;68528;48.814;8.904;2023-05-19T00:49:57;96876.44;;;8.64;66.29
79127;BME280;68528;48.814;8.904;2023-05-19T00:52:22;96863.84;;;8.59;66.85
79127;BME280;68528;48.814;8.904;2023-05-19T00:54:48;96875.41;;;8.56;67.09
79127;BME280;68528;48.814;8.904;2023-05-19T00:57:15;96864.59;;;8.60;67.04
79127;BME280;68528;48.814;8.904;2023-05-19T00:59:41;96864.59;;;8.60;66.78
79127;BME280;68528;48.814;8.904;2023-05-19T01:05:49;96863.00;;;8.47;67.59
79127;BME280;68528;48.814;8.904;2023-05-19T01:08:39;96863.91;;;8.39;67.71
79127;BME280;68528;48.814;8.904;2023-05-19T01:11:05;96865.16;;;8.41;67.24
79127;BME280;68528;48.814;8.904;2023-05-19T01:13:32;96865.06;;;8.38;67.50
79127;BME280;68528;48.814;8.904;2023-05-19T01:42:29;96866.50;;;8.03;69.36
79127;BME280;68528;48.814;8.904;2023-05-19T01:45:02;96867.53;;;7.98;69.68
79127;BME280;68528;48.814;8.904;2023-05-19T01:47:27;96870.25;;;7.98;69.21
79127;BME280;68528;48.814;8.904;2023-05-19T01:49:53;96873.31;;;7.97;69.29
79127;BME280;68528;48.814;8.904;2023-05-19T01:52:18;96863.41;;;7.92;69.23
79127;BME280;68528;48.814;8.904;2023-05-19T02:01:30;96865.75;;;7.81;69.78
79127;BME280;68528;48.814;8.904;2023-05-19T02:07:02;96866.00;;;7.88;69.68
79127;BME280;68528;48.814;8.904;2023-05-19T02:15:40;96868.78;;;7.68;70.50
79127;BME280;68528;48.814;8.904;2023-05-19T02:18:09;96860.94;;;7.66;70.75
79127;BME280;68528;48.814;8.904;2023-05-19T02:20:37;96862.75;;;7.62;70.35
79127;BME280;68528;48.814;8.904;2023-05-19T02:23:02;96865.94;;;7.64;70.82
79127;BME280;68528;48.814;8.904;2023-05-19T02:25:28;96872.16;;;7.65;70.19
79127;BME280;68528;48.814;8.904;2023-05-19T02:27:54;96879.09;;;7.62;70.75
79127;BME280;68528;48.814;8.904;2023-05-19T02:34:28;96871.75;;;7.54;71.25
79127;BME280;68528;48.814;8.904;2023-05-19T02:36:53;96868.97;;;7.63;71.00
79127;BME280;68528;48.814;8.904;2023-05-19T02:39:20;96869.66;;;7.60;71.01
79127;BME280;68528;48.814;8.904;2023-05-19T02:41:46;96864.31;;;7.63;70.98
79127;BME280;68528;48.814;8.904;2023-05-19T02:44:11;96862.06;;;7.65;70.76
79127;BME280;68528;48.814;8.904;2023-05-19T02:46:36;96863.66;;;7.66;71.18
79127;BME280;68528;48.814;8.904;2023-05-19T02:49:20;96857.06;;;7.67;70.74
79127;BME280;68528;48.814;8.904;2023-05-19T02:52:58;96859.13;;;7.70;70.24
79127;BME280;68528;48.814;8.904;2023-05-19T02:55:24;96845.59;;;7.62;71.03
79127;BME280;68528;48.814;8.904;2023-05-19T02:57:49;96846.38;;;7.62;70.88
79127;BME280;68528;48.814;8.904;2023-05-19T03:00:15;96849.75;;;7.59;71.04
79127;BME280;68528;48.814;8.904;2023-05-19T03:02:40;96853.28;;;7.60;71.67
79127;BME280;68528;48.814;8.904;2023-05-19T03:05:08;96850.56;;;7.60;70.94
79127;BME280;68528;48.814;8.904;2023-05-19T03:07:56;96852.50;;;7.59;71.10
79127;BME280;68528;48.814;8.904;2023-05-19T03:11:39;96852.75;;;7.66;70.75
79127;BME280;68528;48.814;8.904;2023-05-19T03:14:28;96855.03;;;7.64;70.71
79127;BME280;68528;48.814;8.904;2023-05-19T03:16:53;96841.06;;;7.66;71.33
79127;BME280;68528;48.814;8.904;2023-05-19T03:19:20;96852.06;;;7.69;70.53
79127;BME280;68528;48.814;8.904;2023-05-19T03:21:45;96841.84;;;7.66;71.07
79127;BME280;68528;48.814;8.904;2023-05-19T03:24:12;96849.81;;;7.71;70.50
79127;BME280;68528;48.814;8.904;2023-05-19T03:30:47;96843.44;;;7.67;71.05
79127;BME280;68528;48.814;8.904;2023-05-19T03:33:17;96841.41;;;7.64;70.66
79127;BME280;68528;48.814;8.904;2023-05-19T03:35:42;96842.50;;;7.63;71.34
79127;BME280;68528;48.814;8.904;2023-05-19T03:38:08;96844.78;;;7.61;71.05
79127;BME280;68528;48.814;8.904;2023-05-19T03:40:34;96856.69;;;7.57;71.15
79127;BME280;68528;48.814;8.904;2023-05-19T03:42:59;96844.66;;;7.58;71.49
79127;BME280;68528;48.814;8.904;2023-05-19T03:49:11;96855.00;;;7.44;71.87
79127;BME280;68528;48.814;8.904;2023-05-19T03:51:38;96856.81;;;7.40;72.33
79127;BME280;68528;48.814;8.904;2023-05-19T03:54:03;96856.50;;;7.41;72.48
79127;BME280;68528;48.814;8.904;2023-05-19T03:56:29;96855.81;;;7.44;72.41
79127;BME280;68528;48.814;8.904;2023-05-19T03:58:55;96862.25;;;7.40;72.63
79127;BME280;68528;48.814;8.904;2023-05-19T04:01:20;96863.66;;;7.46;72.62
79127;BME280;68528;48.814;8.904;2023-05-19T04:04:10;96864.91;;;7.48;72.66
79127;BME280;68528;48.814;8.904;2023-05-19T04:07:23;96859.13;;;7.50;72.40
79127;BME280;68528;48.814;8.904;2023-05-19T04:09:48;96865.38;;;7.50;71.94
79127;BME280;68528;48.814;8.904;2023-05-19T04:12:14;96866.53;;;7.49;72.32
79127;BME280;68528;48.814;8.904;2023-05-19T04:14:40;96860.84;;;7.54;72.06
79127;BME280;68528;48.814;8.904;2023-05-19T04:17:05;96859.28;;;7.53;72.09
79127;BME280;68528;48.814;8.904;2023-05-19T04:19:31;96860.16;;;7.45;72.86
79127;BME280;68528;48.814;8.904;2023-05-19T04:22:09;96865.59;;;7.45;73.02
79127;BME280;68528;48.814;8.904;2023-05-19T04:24:56;96863.06;;;7.40;72.32
79127;BME280;68528;48.814;8.904;2023-05-19T04:27:44;96862.25;;;7.40;72.58
79127;BME280;68528;48.814;8.904;2023-05-19T04:30:10;96869.44;;;7.44;72.36
79127;BME280;68528;48.814;8.904;2023-05-19T04:32:36;96865.38;;;7.50;71.76
79127;BME280;68528;48.814;8.904;2023-05-19T04:35:03;96864.50;;;7.58;71.86
79127;BME280;68528;48.814;8.904;2023-05-19T04:37:28;96868.97;;;7.63;72.24
79127;BME280;68528;48.814;8.904;2023-05-19T04:40:31;96871.75;;;7.54;72.00
79127;BME280;68528;48.814;8.904;2023-05-19T04:43:39;96867.91;;;7.55;72.10
79127;BME280;68528;48.814;8.904;2023-05-19T04:46:29;96864.78;;;7.65;71.79
79127;BME280;68528;48.814;8.904;2023-05-19T04:48:54;96868.44;;;7.69;72.10
79127;BME280;68528;48.814;8.904;2023-05-19T04:51:21;96866.84;;;7.68;72.24
79127;BME280;68528;48.814;8.904;2023-05-19T04:53:47;96861.41;;;7.68;71.94
79127;BME280;68528;48.814;8.904;2023-05-19T04:56:13;96861.63;;;7.75;72.11
79127;BME280;68528;48.814;8.904;2023-05-19T05:05:06;96862.81;;;7.86;70.98
79127;BME280;68528;48.814;8.904;2023-05-19T05:07:32;96866.94;;;7.92;71.31
79127;BME280;68528;48.814;8.904;2023-05-19T05:09:57;96867.31;;;8.03;70.59
79127;BME280;68528;48.814;8.904;2023-05-19T05:12:23;96869.16;;;8.11;69.98
79127;BME280;68528;48.814;8.904;2023-05-19T05:14:49;96863.94;;;8.18;69.92
79127;BME280;68528;48.814;8.904;2023-05-19T05:17:34;96863.69;;;8.32;69.71
79127;BME280;68528;48.814;8.904;2023-05-19T05:20:34;96863.78;;;8.35;69.31
79127;BME280;68528;48.814;8.904;2023-05-19T05:23:02;96865.97;;;8.42;69.21
79127;BME280;68528;48.814;8.904;2023-05-19T05:25:28;96866.41;;;8.44;68.82
79127;BME280;68528;48.814;8.904;2023-05-19T05:27:53;96873.50;;;8.57;69.08
79127;BME280;68528;48.814;8.904;2023-05-19T05:30:19;96870.78;;;8.69;68.19
79127;BME280;68528;48.814;8.904;2023-05-19T05:32:44;96876.00;;;8.74;68.12
79127;BME280;68528;48.814;8.904;2023-05-19T05:39:00;96871.25;;;8.95;68.85
79127;BME280;68528;48.814;8.904;2023-05-19T05:41:34;96863.03;;;9.07;66.88
79127;BME280;68528;48.814;8.904;2023-05-19T05:44:00;96869.50;;;9.03;66.69
79127;BME280;68528;48.814;8.904;2023-05-19T05:46:26;96868.50;;;9.07;67.42
79127;BME280;68528;48.814;8.904;2023-05-19T05:48:52;96862.34;;;9.22;66.98
79127;BME280;68528;48.814;8.904;2023-05-19T05:51:20;96867.88;;;9.38;66.69
79127;BME280;68528;48.814;8.904;2023-05-19T05:53:51;96875.34;;;9.53;65.46
79127;BME280;68528;48.814;8.904;2023-05-19T05:56:17;96879.66;;;9.66;64.98
79127;BME280;68528;48.814;8.904;2023-05-19T05:58:45;96875.16;;;9.86;64.96
79127;BME280;68528;48.814;8.904;2023-05-19T06:01:11;96866.19;;;10.01;64.58
79127;BME280;68528;48.814;8.904;2023-05-19T06:03:41;96869.53;;;10.22;62.52
79127;BME280;68528;48.814;8.904;2023-05-19T06:06:09;96866.16;;;10.13;64.36
79127;BME280;68528;48.814;8.904;2023-05-19T06:08:37;96874.38;;;10.28;63.66
79127;BME280;68528;48.814;8.904;2023-05-19T06:11:02;96872.91;;;10.31;63.39
79127;BME280;68528;48.814;8.904;2023-05-19T06:13:36;96875.50;;;10.71;62.60
79127;BME280;68528;48.814;8.904;2023-05-19T06:16:01;96872.56;;;11.11;60.03
79127;BME280;68528;48.814;8.904;2023-05-19T06:18:28;96866.22;;;11.41;58.86
79127;BME280;68528;48.814;8.904;2023-05-19T06:20:54;96872.50;;;11.76;58.47
79127;BME280;68528;48.814;8.904;2023-05-19T06:23:19;96864.19;;;11.73;58.12
79127;BME280;68528;48.814;8.904;2023-05-19T06:25:47;96873.59;;;11.56;58.18
79127;BME280;68528;48.814;8.904;2023-05-19T06:28:13;96864.88;;;11.00;59.89
79127;BME280;68528;48.814;8.904;2023-05-19T06:30:38;96868.69;;;11.46;59.93
79127;BME280;68528;48.814;8.904;2023-05-19T06:33:05;96870.06;;;11.56;57.85
79127;BME280;68528;48.814;8.904;2023-05-19T06:35:30;96873.38;;;11.46;60.47
79127;BME280;68528;48.814;8.904;2023-05-19T06:37:56;96868.59;;;11.43;58.57
79127;BME280;68528;48.814;8.904;2023-05-19T06:40:22;96871.22;;;11.55;58.81
79127;BME280;68528;48.814;8.904;2023-05-19T06:42:48;96855.69;;;11.78;58.21
79127;BME280;68528;48.814;8.904;2023-05-19T06:45:17;96857.19;;;12.14;57.09
79127;BME280;68528;48.814;8.904;2023-05-19T06:47:46;96868.88;;;12.52;56.94
79127;BME280;68528;48.814;8.904;2023-05-19T06:50:11;96864.69;;;12.58;56.45
79127;BME280;68528;48.814;8.904;2023-05-19T06:52:37;96859.63;;;12.60;56.68
79127;BME280;68528;48.814;8.904;2023-05-19T06:55:04;96862.25;;;12.76;56.19
79127;BME280;68528;48.814;8.904;2023-05-19T06:57:29;96864.94;;;12.73;56.24
79127;BME280;68528;48.814;8.904;2023-05-19T06:59:56;96862.72;;;12.59;56.08
79127;BME280;68528;48.814;8.904;2023-05-19T07:02:22;96867.34;;;12.32;56.72
79127;BME280;68528;48.814;8.904;2023-05-19T07:04:47;96876.03;;;12.15;58.36
79127;BME280;68528;48.814;8.904;2023-05-19T07:07:13;96866.44;;;12.25;59.25
79127;BME280;68528;48.814;8.904;2023-05-19T07:09:38;96861.81;;;12.10;58.16
79127;BME280;68528;48.814;8.904;2023-05-19T07:12:04;96867.50;;;12.39;57.20
79127;BME280;68528;48.814;8.904;2023-05-19T07:14:30;96865.94;;;12.00;58.48
79127;BME280;68528;48.814;8.904;2023-05-19T07:16:55;96872.13;;;12.58;57.53
79127;BME280;68528;48.814;8.904;2023-05-19T07:19:20;96871.09;;;12.66;57.35
79127;BME280;68528;48.814;8.904;2023-05-19T07:21:46;96862.41;;;13.09;56.55
79127;BME280;68528;48.814;8.904;2023-05-19T07:24:12;96865.53;;;13.08;55.31
79127;BME280;68528;48.814;8.904;2023-05-19T07:26:57;96860.53;;;13.39;54.97
79127;BME280;68528;48.814;8.904;2023-05-19T07:29:23;96857.47;;;13.45;55.28
79127;BME280;68528;48.814;8.904;2023-05-19T07:31:49;96851.28;;;13.51;55.53
79127;BME280;68528;48.814;8.904;2023-05-19T07:34:35;96858.69;;;14.06;53.98
79127;BME280;68528;48.814;8.904;2023-05-19T07:38:16;96858.91;;;13.94;53.28
79127;BME280;68528;48.814;8.904;2023-05-19T07:40:41;96855.81;;;13.66;55.19
79127;BME280;68528;48.814;8.904;2023-05-19T07:43:15;96847.63;;;13.44;55.08
79127;BME280;68528;48.814;8.904;2023-05-19T07:49:37;96851.56;;;12.94;56.64
79127;BME280;68528;48.814;8.904;2023-05-19T07:52:24;96844.09;;;12.94;57.31
79127;BME280;68528;48.814;8.904;2023-05-19T08:01:22;96847.50;;;12.20;58.15
79127;BME280;68528;48.814;8.904;2023-05-19T08:03:48;96848.75;;;12.03;58.61
79127;BME280;68528;48.814;8.904;2023-05-19T08:06:20;96841.66;;;12.02;59.65
79127;BME280;68528;48.814;8.904;2023-05-19T08:08:51;96838.25;;;12.09;58.11
79127;BME280;68528;48.814;8.904;2023-05-19T08:11:21;96845.41;;;11.94;59.07
79127;BME280;68528;48.814;8.904;2023-05-19T08:13:46;96841.97;;;11.78;60.24
79127;BME280;68528;48.814;8.904;2023-05-19T08:16:13;96842.38;;;11.61;60.87
79127;BME280;68528;48.814;8.904;2023-05-19T08:18:38;96835.38;;;11.63;60.74
79127;BME280;68528;48.814;8.904;2023-05-19T08:23:39;96823.03;;;11.92;60.11
79127;BME280;68528;48.814;8.904;2023-05-19T08:26:04;96832.69;;;12.24;61.02
79127;BME280;68528;48.814;8.904;2023-05-19T08:28:30;96821.53;;;12.36;59.14
79127;BME280;68528;48.814;8.904;2023-05-19T08:31:00;96832.06;;;12.12;59.51
79127;BME280;68528;48.814;8.904;2023-05-19T08:33:26;96832.13;;;11.96;59.90
79127;BME280;68528;48.814;8.904;2023-05-19T08:35:51;96825.47;;;12.16;59.91
79127;BME280;68528;48.814;8.904;2023-05-19T08:38:16;96826.44;;;12.27;59.43
79127;BME280;68528;48.814;8.904;2023-05-19T08:40:45;96820.75;;;12.17;58.77
79127;BME280;68528;48.814;8.904;2023-05-19T08:43:17;96818.44;;;12.19;59.98
79127;BME280;68528;48.814;8.904;2023-05-19T08:46:04;96824.44;;;12.47;59.33
79127;BME280;68528;48.814;8.904;2023-05-19T08:48:35;96819.06;;;12.31;58.74
79127;BME280;68528;48.814;8.904;2023-05-19T08:51:37;96825.97;;;12.44;59.09
79127;BME280;68528;48.814;8.904;2023-05-19T08:54:11;96814.44;;;12.35;56.46
79127;BME280;68528;48.814;8.904;2023-05-19T08:57:12;96830.19;;;12.61;57.49
79127;BME280;68528;48.814;8.904;2023-05-19T09:00:02;96824.44;;;12.70;56.42
79127;BME280;68528;48.814;8.904;2023-05-19T09:02:48;96821.50;;;12.59;56.30
79127;BME280;68528;48.814;8.904;2023-05-19T09:05:15;96820.03;;;12.65;56.72
79127;BME280;68528;48.814;8.904;2023-05-19T09:07:42;96817.25;;;12.61;56.90
79127;BME280;68528;48.814;8.904;2023-05-19T09:10:08;96824.63;;;12.57;55.79
79127;BME280;68528;48.814;8.904;2023-05-19T09:12:38;96816.69;;;12.52;55.45
79127;BME280;68528;48.814;8.904;2023-05-19T09:15:37;96812.94;;;12.60;54.91
79127;BME280;68528;48.814;8.904;2023-05-19T09:18:11;96813.34;;;12.63;56.49
79127;BME280;68528;48.814;8.904;2023-05-19T09:20:41;96814.22;;;12.93;57.15
79127;BME280;68528;48.814;8.904;2023-05-19T09:23:11;96815.53;;;12.76;56.28
79127;BME280;68528;48.814;8.904;2023-05-19T09:25:50;96816.69;;;12.75;56.29
79127;BME280;68528;48.814;8.904;2023-05-19T09:28:27;96822.53;;;12.74;57.13
79127;BME280;68528;48.814;8.904;2023-05-19T09:31:07;96821.16;;;12.60;57.27
79127;BME280;68528;48.814;8.904;2023-05-19T09:33:36;96821.28;;;12.68;57.61
79127;BME280;68528;48.814;8.904;2023-05-19T09:36:03;96808.53;;;12.56;56.21
79127;BME280;68528;48.814;8.904;2023-05-19T09:38:34;96810.94;;;12.84;57.05
79127;BME280;68528;48.814;8.904;2023-05-19T09:41:00;96814.16;;;13.12;55.81
79127;BME280;68528;48.814;8.904;2023-05-19T09:43:29;96805.00;;;13.04;55.63
79127;BME280;68528;48.814;8.904;2023-05-19T09:46:13;96811.88;;;12.95;55.97
79127;BME280;68528;48.814;8.904;2023-05-19T09:48:40;96809.44;;;13.12;55.52
79127;BME280;68528;48.814;8.904;2023-05-19T09:51:10;96819.22;;;13.10;55.68
79127;BME280;68528;48.814;8.904;2023-05-19T09:53:52;96816.81;;;13.05;55.80
79127;BME280;68528;48.814;8.904;2023-05-19T09:56:57;96812.44;;;12.78;56.69
79127;BME280;68528;48.814;8.904;2023-05-19T09:59:27;96811.81;;;12.42;57.67
79127;BME280;68528;48.814;8.904;2023-05-19T10:04:58;96815.97;;;12.55;56.40
79127;BME280;68528;48.814;8.904;2023-05-19T10:07:35;96811.31;;;12.59;56.41
79127;BME280;68528;48.814;8.904;2023-05-19T10:10:03;96813.88;;;12.49;56.65
79127;BME280;68528;48.814;8.904;2023-05-19T10:12:30;96808.69;;;12.44;56.88
79127;BME280;68528;48.814;8.904;2023-05-19T10:14:56;96811.09;;;12.45;57.63
79127;BME280;68528;48.814;8.904;2023-05-19T10:17:25;96806.63;;;12.60;56.96
79127;BME280;68528;48.814;8.904;2023-05-19T10:19:51;96801.13;;;12.60;57.38
79127;BME280;68528;48.814;8.904;2023-05-19T10:22:17;96803.00;;;12.79;56.80
79127;BME280;68528;48.814;8.904;2023-05-19T10:24:43;96803.56;;;13.14;56.92
79127;BME280;68528;48.814;8.904;2023-05-19T10:27:12;96806.84;;;13.23;55.10
79127;BME280;68528;48.814;8.904;2023-05-19T10:29:42;96803.25;;;13.19;55.20
79127;BME280;68528;48.814;8.904;2023-05-19T10:32:14;96805.91;;;13.12;55.43
79127;BME280;68528;48.814;8.904;2023-05-19T10:37:41;96801.75;;;13.51;54.93
79127;BME280;68528;48.814;8.904;2023-05-19T10:40:29;96798.84;;;13.70;53.73
79127;BME280;68528;48.814;8.904;2023-05-19T10:46:09;96803.31;;;13.52;53.87
79127;BME280;68528;48.814;8.904;2023-05-19T11:11:16;96801.66;;;13.18;54.29
79127;BME280;68528;48.814;8.904;2023-05-19T11:13:53;96802.72;;;13.10;55.04
79127;BME280;68528;48.814;8.904;2023-05-19T11:16:30;96793.94;;;13.01;54.67
79127;BME280;68528;48.814;8.904;2023-05-19T11:18:57;96796.72;;;13.30;55.52
79127;BME280;68528;48.814;8.904;2023-05-19T11:21:23;96802.38;;;13.41;54.09
79127;BME280;68528;48.814;8.904;2023-05-19T11:23:50;96802.94;;;13.24;54.36
79127;BME280;68528;48.814;8.904;2023-05-19T11:26:39;96803.38;;;13.26;54.15
79127;BME280;68528;48.814;8.904;2023-05-19T11:29:43;96794.13;;;12.89;56.07
79127;BME280;68528;48.814;8.904;2023-05-19T11:32:10;96792.28;;;12.96;55.29
79127;BME280;68528;48.814;8.904;2023-05-19T11:34:43;96791.50;;;12.96;56.29
79127;BME280;68528;48.814;8.904;2023-05-19T11:37:19;96795.50;;;13.02;55.01
79127;BME280;68528;48.814;8.904;2023-05-19T11:39:50;96794.25;;;12.96;54.82
79127;BME280;68528;48.814;8.904;2023-05-19T11:42:17;96786.41;;;12.72;55.61
79127;BME280;68528;48.814;8.904;2023-05-19T11:45:24;96793.78;;;12.68;56.73
79127;BME280;68528;48.814;8.904;2023-05-19T11:47:57;96787.63;;;12.74;55.85
79127;BME280;68528;48.814;8.904;2023-05-19T11:50:43;96789.00;;;12.87;55.85
79127;BME280;68528;48.814;8.904;2023-05-19T11:53:29;96774.81;;;12.82;56.40
79127;BME280;68528;48.814;8.904;2023-05-19T11:55:56;96777.91;;;12.80;57.06
79127;BME280;68528;48.814;8.904;2023-05-19T11:58:27;96777.22;;;12.87;56.91
79127;BME280;68528;48.814;8.904;2023-05-19T12:01:22;96777.25;;;13.13;56.63
79127;BME280;68528;48.814;8.904;2023-05-19T12:04:14;96777.59;;;13.37;55.87
79127;BME280;68528;48.814;8.904;2023-05-19T12:07:14;96783.84;;;13.34;55.15
79127;BME280;68528;48.814;8.904;2023-05-19T12:09:45;96779.66;;;12.92;55.22
79127;BME280;68528;48.814;8.904;2023-05-19T12:12:21;96782.69;;;13.09;57.01
79127;BME280;68528;48.814;8.904;2023-05-19T12:14:49;96777.56;;;13.08;55.55
79127;BME280;68528;48.814;8.904;2023-05-19T12:17:18;96785.69;;;13.01;56.15
79127;BME280;68528;48.814;8.904;2023-05-19T12:19:50;96784.72;;;12.90;56.31
79127;BME280;68528;48.814;8.904;2023-05-19T12:22:17;96785.19;;;12.95;56.46
79127;BME280;68528;48.814;8.904;2023-05-19T12:24:45;96787.47;;;12.90;55.78
79127;BME280;68528;48.814;8.904;2023-05-19T12:27:37;96790.50;;;12.81;56.28
79127;BME280;68528;48.814;8.904;2023-05-19T12:33:02;96796.31;;;13.02;56.84
79127;BME280;68528;48.814;8.904;2023-05-19T12:35:29;96793.19;;;13.04;56.28
79127;BME280;68528;48.814;8.904;2023-05-19T12:41:20;96796.50;;;13.13;55.88
79127;BME280;68528;48.814;8.904;2023-05-19T12:44:00;96784.75;;;13.16;56.27
79127;BME280;68528;48.814;8.904;2023-05-19T12:46:31;96781.69;;;13.21;56.56
79127;BME280;68528;48.814;8.904;2023-05-19T12:48:58;96788.03;;;13.25;55.58
79127;BME280;68528;48.814;8.904;2023-05-19T12:51:25;96781.78;;;13.28;55.95
79127;BME280;68528;48.814;8.904;2023-05-19T12:53:50;96791.19;;;13.27;56.27
79127;BME280;68528;48.814;8.904;2023-05-19T12:56:16;96794.38;;;13.29;56.38
79127;BME280;68528;48.814;8.904;2023-05-19T12:58:44;96786.38;;;13.20;56.63
79127;BME280;68528;48.814;8.904;2023-05-19T13:01:22;96794.06;;;13.08;56.86
79127;BME280;68528;48.814;8.904;2023-05-19T13:03:48;96789.22;;;13.01;57.19
79127;BME280;68528;48.814;8.904;2023-05-19T13:06:14;96795.19;;;12.81;57.58
79127;BME280;68528;48.814;8.904;2023-05-19T13:08:41;96797.94;;;12.81;57.84
79127;BME280;68528;48.814;8.904;2023-05-19T13:11:06;96792.91;;;12.86;58.73
79127;BME280;68528;48.814;8.904;2023-05-19T13:13:32;96792.13;;;12.86;58.03
79127;BME280;68528;48.814;8.904;2023-05-19T13:15:59;96794.28;;;12.73;59.12
79127;BME280;68528;48.814;8.904;2023-05-19T13:18:30;96791.03;;;12.68;58.46
79127;BME280;68528;48.814;8.904;2023-05-19T13:20:56;96787.81;;;12.62;58.52
79127;BME280;68528;48.814;8.904;2023-05-19T13:23:30;96783.19;;;12.66;59.54
79127;BME280;68528;48.814;8.904;2023-05-19T13:25:55;96784.44;;;12.72;59.58
79127;BME280;68528;48.814;8.904;2023-05-19T13:28:21;96774.38;;;12.80;58.71
79127;BME280;68528;48.814;8.904;2023-05-19T13:30:46;96779.44;;;12.78;59.12
79127;BME280;68528;48.814;8.904;2023-05-19T13:33:35;96772.81;;;12.82;59.25
79127;BME280;68528;48.814;8.904;2023-05-19T13:36:41;96763.81;;;12.82;58.84
79127;BME280;68528;48.814;8.904;2023-05-19T13:39:18;96778.22;;;12.75;59.28
79127;BME280;68528;48.814;8.904;2023-05-19T13:41:44;96773.41;;;12.95;59.58
79127;BME280;68528;48.814;8.904;2023-05-19T13:44:11;96774.16;;;12.92;58.36
79127;BME280;68528;48.814;8.904;2023-05-19T13:46:46;96768.53;;;12.85;59.04
79127;BME280;68528;48.814;8.904;2023-05-19T13:49:35;96773.34;;;12.91;59.50
79127;BME280;68528;48.814;8.904;2023-05-19T13:54:50;96771.66;;;12.83;60.14
79127;BME280;68528;48.814;8.904;2023-05-19T13:57:28;96756.19;;;12.98;59.45
79127;BME280;68528;48.814;8.904;2023-05-19T14:00:17;96763.69;;;13.01;59.17
79127;BME280;68528;48.814;8.904;2023-05-19T14:02:43;96759.66;;;12.95;59.28
79127;BME280;68528;48.814;8.904;2023-05-19T14:05:08;96760.88;;;12.97;59.52
79127;BME280;68528;48.814;8.904;2023-05-19T14:07:34;96756.59;;;13.00;59.78
79127;BME280;68528;48.814;8.904;2023-05-19T14:10:03;96755.00;;;12.99;59.76
79127;BME280;68528;48.814;8.904;2023-05-19T14:12:34;96752.97;;;12.92;60.11
79127;BME280;68528;48.814;8.904;2023-05-19T14:14:59;96750.56;;;12.91;58.88
79127;BME280;68528;48.814;8.904;2023-05-19T14:17:28;96750.47;;;12.84;59.72
79127;BME280;68528;48.814;8.904;2023-05-19T14:19:56;96750.56;;;12.91;58.78
79127;BME280;68528;48.814;8.904;2023-05-19T14:22:22;96747.09;;;12.94;58.55
79127;BME280;68528;48.814;8.904;2023-05-19T14:24:47;96744.34;;;12.94;59.00
79127;BME280;68528;48.814;8.904;2023-05-19T14:27:13;96751.25;;;13.07;57.91
79127;BME280;68528;48.814;8.904;2023-05-19T14:29:38;96740.41;;;12.95;58.43
79127;BME280;68528;48.814;8.904;2023-05-19T14:32:10;96740.09;;;13.00;57.42
79127;BME280;68528;48.814;8.904;2023-05-19T14:34:36;96736.63;;;13.03;58.39
79127;BME280;68528;48.814;8.904;2023-05-19T14:37:05;96734.91;;;12.95;58.91
79127;BME280;68528;48.814;8.904;2023-05-19T14:39:31;96745.31;;;13.05;59.65
79127;BME280;68528;48.814;8.904;2023-05-19T14:41:57;96742.66;;;13.12;57.85
79127;BME280;68528;48.814;8.904;2023-05-19T14:44:28;96745.59;;;13.00;58.09
79127;BME280;68528;48.814;8.904;2023-05-19T14:46:55;96750.72;;;13.01;57.82
79127;BME280;68528;48.814;8.904;2023-05-19T14:49:21;96738.88;;;12.97;58.75
79127;BME280;68528;48.814;8.904;2023-05-19T14:51:46;96746.94;;;13.09;58.95
79127;BME280;68528;48.814;8.904;2023-05-19T14:54:12;96739.19;;;13.15;58.59
79127;BME280;68528;48.814;8.904;2023-05-19T14:56:37;96746.34;;;13.23;58.81
79127;BME280;68528;48.814;8.904;2023-05-19T14:59:03;96738.94;;;13.27;58.84
79127;BME280;68528;48.814;8.904;2023-05-19T15:01:29;96747.94;;;13.24;58.12
79127;BME280;68528;48.814;8.904;2023-05-19T15:03:54;96746.72;;;13.21;58.73
79127;BME280;68528;48.814;8.904;2023-05-19T15:06:19;96746.88;;;13.32;58.45
79127;BME280;68528;48.814;8.904;2023-05-19T15:08:46;96741.81;;;13.37;57.83
79127;BME280;68528;48.814;8.904;2023-05-19T15:11:11;96743.47;;;13.42;57.65
79127;BME280;68528;48.814;8.904;2023-05-19T15:13:38;96739.56;;;13.43;56.95
79127;BME280;68528;48.814;8.904;2023-05-19T15:16:04;96736.28;;;13.34;57.79
79127;BME280;68528;48.814;8.904;2023-05-19T15:18:33;96730.13;;;13.44;58.05
79127;BME280;68528;48.814;8.904;2023-05-19T15:20:59;96728.72;;;13.57;57.35
79127;BME280;68528;48.814;8.904;2023-05-19T15:23:24;96730.69;;;13.60;57.25
79127;BME280;68528;48.814;8.904;2023-05-19T15:25:50;96727.94;;;13.60;57.35
79127;BME280;68528;48.814;8.904;2023-05-19T15:28:18;96730.28;;;13.58;57.45
79127;BME280;68528;48.814;8.904;2023-05-19T15:30:43;96732.06;;;13.44;57.85
79127;BME280;68528;48.814;8.904;2023-05-19T15:33:11;96722.84;;;13.29;58.12
79127;BME280;68528;48.814;8.904;2023-05-19T15:35:38;96722.88;;;13.03;59.14
79127;BME280;68528;48.814;8.904;2023-05-19T15:38:03;96732.28;;;13.02;59.21
79127;BME280;68528;48.814;8.904;2023-05-19T15:40:34;96728.91;;;13.12;59.94